sensor_id;sensor_type;location;lat;lon;timestamp;P1;durP1;ratioP1;P2;durP2;ratioP2
60502;SDS011;51448;51.660;5.824;2023-08-31T00:02:18;4.63;;;2.00;;
60502;SDS011;51448;51.660;5.824;2023-08-31T00:04:47;5.97;;;1.80;;
60502;SDS011;51448;51.660;5.824;2023-08-31T00:07:18;4.57;;;1.77;;
60502;SDS011;51448;51.660;5.824;2023-08-31T00:09:45;5.68;;;2.63;;
60502;SDS011;51448;51.660;5.824;2023-08-31T00:12:13;7.45;;;2.22;;
60502;SDS011;51448;51.660;5.824;2023-08-31T00:14:40;4.32;;;2.00;;
60502;SDS011;51448;51.660;5.824;2023-08-31T00:17:08;4.55;;;2.38;;
60502;SDS011;51448;51.660;5.824;2023-08-31T00:19:36;4.20;;;2.20;;
60502;SDS011;51448;51.660;5.824;2023-08-31T00:22:03;5.45;;;2.33;;
60502;SDS011;51448;51.660;5.824;2023-08-31T00:24:31;4.57;;;2.25;;
60502;SDS011;51448;51.660;5.824;2023-08-31T00:26:59;5.85;;;2.47;;
60502;SDS011;51448;51.660;5.824;2023-08-31T00:29:26;6.45;;;2.72;;
60502;SDS011;51448;51.660;5.824;2023-08-31T00:31:54;6.38;;;2.97;;
60502;SDS011;51448;51.660;5.824;2023-08-31T00:34:22;6.25;;;2.67;;
60502;SDS011;51448;51.660;5.824;2023-08-31T00:36:50;5.32;;;2.80;;
60502;SDS011;51448;51.660;5.824;2023-08-31T00:39:18;5.43;;;2.55;;
60502;SDS011;51448;51.660;5.824;2023-08-31T00:41:48;5.72;;;2.72;;
60502;SDS011;51448;51.660;5.824;2023-08-31T00:44:17;4.90;;;2.88;;
60502;SDS011;51448;51.660;5.824;2023-08-31T00:46:48;6.68;;;3.00;;
60502;SDS011;51448;51.660;5.824;2023-08-31T00:49:16;6.22;;;3.15;;
60502;SDS011;51448;51.660;5.824;2023-08-31T00:51:45;5.45;;;3.30;;
60502;SDS011;51448;51.660;5.824;2023-08-31T00:54:17;6.00;;;3.05;;
60502;SDS011;51448;51.660;5.824;2023-08-31T00:56:45;5.85;;;3.53;;
60502;SDS011;51448;51.660;5.824;2023-08-31T00:59:13;7.13;;;3.63;;
60502;SDS011;51448;51.660;5.824;2023-08-31T01:01:43;6.85;;;3.90;;
60502;SDS011;51448;51.660;5.824;2023-08-31T01:07:34;7.35;;;4.30;;
60502;SDS011;51448;51.660;5.824;2023-08-31T01:10:19;8.30;;;4.38;;
60502;SDS011;51448;51.660;5.824;2023-08-31T01:13:07;6.93;;;4.43;;
60502;SDS011;51448;51.660;5.824;2023-08-31T01:15:44;9.10;;;5.38;;
60502;SDS011;51448;51.660;5.824;2023-08-31T01:18:17;9.77;;;5.60;;
60502;SDS011;51448;51.660;5.824;2023-08-31T01:26:23;10.40;;;6.22;;
60502;SDS011;51448;51.660;5.824;2023-08-31T01:28:52;9.93;;;6.03;;
60502;SDS011;51448;51.660;5.824;2023-08-31T01:31:23;9.52;;;5.93;;
60502;SDS011;51448;51.660;5.824;2023-08-31T01:33:50;9.32;;;6.20;;
60502;SDS011;51448;51.660;5.824;2023-08-31T01:36:24;9.32;;;6.40;;
60502;SDS011;51448;51.660;5.824;2023-08-31T01:39:10;11.00;;;6.82;;
60502;SDS011;51448;51.660;5.824;2023-08-31T01:41:55;11.02;;;6.60;;
60502;SDS011;51448;51.660;5.824;2023-08-31T01:44:28;10.98;;;6.72;;
60502;SDS011;51448;51.660;5.824;2023-08-31T01:47:02;11.05;;;7.63;;
60502;SDS011;51448;51.660;5.824;2023-08-31T01:49:36;8.98;;;6.60;;
60502;SDS011;51448;51.660;5.824;2023-08-31T01:52:07;11.02;;;7.80;;
60502;SDS011;51448;51.660;5.824;2023-08-31T01:54:35;10.63;;;7.78;;
60502;SDS011;51448;51.660;5.824;2023-08-31T01:57:05;12.93;;;8.02;;
60502;SDS011;51448;51.660;5.824;2023-08-31T01:59:43;11.90;;;8.13;;
60502;SDS011;51448;51.660;5.824;2023-08-31T02:02:11;11.27;;;7.82;;
60502;SDS011;51448;51.660;5.824;2023-08-31T02:04:38;10.45;;;7.68;;
60502;SDS011;51448;51.660;5.824;2023-08-31T02:07:06;13.13;;;7.88;;
60502;SDS011;51448;51.660;5.824;2023-08-31T02:09:34;13.00;;;8.25;;
60502;SDS011;51448;51.660;5.824;2023-08-31T02:12:04;10.55;;;8.30;;
60502;SDS011;51448;51.660;5.824;2023-08-31T02:14:32;11.68;;;7.47;;
60502;SDS011;51448;51.660;5.824;2023-08-31T02:17:00;11.88;;;8.60;;
60502;SDS011;51448;51.660;5.824;2023-08-31T02:19:28;15.93;;;8.18;;
60502;SDS011;51448;51.660;5.824;2023-08-31T02:21:55;11.07;;;7.97;;
60502;SDS011;51448;51.660;5.824;2023-08-31T02:24:23;10.43;;;8.18;;
60502;SDS011;51448;51.660;5.824;2023-08-31T02:26:52;12.45;;;8.07;;
60502;SDS011;51448;51.660;5.824;2023-08-31T02:29:19;11.63;;;8.27;;
60502;SDS011;51448;51.660;5.824;2023-08-31T02:31:47;10.25;;;7.90;;
60502;SDS011;51448;51.660;5.824;2023-08-31T02:34:14;10.60;;;7.47;;
60502;SDS011;51448;51.660;5.824;2023-08-31T02:36:42;12.10;;;8.15;;
60502;SDS011;51448;51.660;5.824;2023-08-31T02:39:10;10.90;;;8.23;;
60502;SDS011;51448;51.660;5.824;2023-08-31T02:41:37;11.25;;;8.32;;
60502;SDS011;51448;51.660;5.824;2023-08-31T02:44:05;13.38;;;8.30;;
60502;SDS011;51448;51.660;5.824;2023-08-31T02:46:32;11.43;;;8.68;;
60502;SDS011;51448;51.660;5.824;2023-08-31T02:49:00;12.27;;;8.48;;
60502;SDS011;51448;51.660;5.824;2023-08-31T02:51:28;10.48;;;7.68;;
60502;SDS011;51448;51.660;5.824;2023-08-31T02:53:55;13.38;;;8.68;;
60502;SDS011;51448;51.660;5.824;2023-08-31T02:56:23;10.63;;;8.05;;
60502;SDS011;51448;51.660;5.824;2023-08-31T02:58:51;11.05;;;8.32;;
60502;SDS011;51448;51.660;5.824;2023-08-31T03:01:18;10.45;;;7.90;;
60502;SDS011;51448;51.660;5.824;2023-08-31T03:03:49;12.57;;;8.40;;
60502;SDS011;51448;51.660;5.824;2023-08-31T03:06:17;13.18;;;8.35;;
60502;SDS011;51448;51.660;5.824;2023-08-31T03:08:44;11.63;;;7.85;;
60502;SDS011;51448;51.660;5.824;2023-08-31T03:11:13;11.82;;;8.05;;
60502;SDS011;51448;51.660;5.824;2023-08-31T03:13:41;11.90;;;7.57;;
60502;SDS011;51448;51.660;5.824;2023-08-31T03:16:09;11.35;;;8.07;;
60502;SDS011;51448;51.660;5.824;2023-08-31T03:18:37;10.88;;;8.00;;
60502;SDS011;51448;51.660;5.824;2023-08-31T03:21:04;13.02;;;8.15;;
60502;SDS011;51448;51.660;5.824;2023-08-31T03:23:32;12.18;;;8.63;;
60502;SDS011;51448;51.660;5.824;2023-08-31T03:25:59;12.45;;;8.20;;
60502;SDS011;51448;51.660;5.824;2023-08-31T03:28:33;12.50;;;8.30;;
60502;SDS011;51448;51.660;5.824;2023-08-31T03:31:01;13.45;;;8.15;;
60502;SDS011;51448;51.660;5.824;2023-08-31T03:33:29;12.35;;;8.20;;
60502;SDS011;51448;51.660;5.824;2023-08-31T03:36:02;11.07;;;8.52;;
60502;SDS011;51448;51.660;5.824;2023-08-31T03:38:33;11.45;;;8.48;;
60502;SDS011;51448;51.660;5.824;2023-08-31T03:41:05;13.65;;;9.55;;
60502;SDS011;51448;51.660;5.824;2023-08-31T03:43:34;12.70;;;8.75;;
60502;SDS011;51448;51.660;5.824;2023-08-31T03:46:02;12.98;;;9.60;;
60502;SDS011;51448;51.660;5.824;2023-08-31T03:48:29;12.43;;;8.95;;
60502;SDS011;51448;51.660;5.824;2023-08-31T03:50:57;13.15;;;8.93;;
60502;SDS011;51448;51.660;5.824;2023-08-31T03:53:25;12.32;;;8.88;;
60502;SDS011;51448;51.660;5.824;2023-08-31T03:58:24;13.98;;;9.07;;
60502;SDS011;51448;51.660;5.824;2023-08-31T04:00:53;13.48;;;9.50;;
60502;SDS011;51448;51.660;5.824;2023-08-31T04:03:21;12.07;;;9.40;;
60502;SDS011;51448;51.660;5.824;2023-08-31T04:05:54;12.27;;;8.95;;
60502;SDS011;51448;51.660;5.824;2023-08-31T04:08:23;15.27;;;9.77;;
60502;SDS011;51448;51.660;5.824;2023-08-31T04:10:50;12.45;;;10.20;;
60502;SDS011;51448;51.660;5.824;2023-08-31T04:13:18;12.75;;;10.15;;
60502;SDS011;51448;51.660;5.824;2023-08-31T04:15:46;17.30;;;11.63;;
60502;SDS011;51448;51.660;5.824;2023-08-31T04:18:15;14.32;;;10.63;;
60502;SDS011;51448;51.660;5.824;2023-08-31T04:20:47;15.07;;;11.07;;
60502;SDS011;51448;51.660;5.824;2023-08-31T04:23:20;15.25;;;11.18;;
60502;SDS011;51448;51.660;5.824;2023-08-31T04:25:48;15.73;;;12.18;;
60502;SDS011;51448;51.660;5.824;2023-08-31T04:28:18;14.07;;;10.93;;
60502;SDS011;51448;51.660;5.824;2023-08-31T04:30:46;14.60;;;11.02;;
60502;SDS011;51448;51.660;5.824;2023-08-31T04:33:13;15.70;;;11.00;;
60502;SDS011;51448;51.660;5.824;2023-08-31T04:35:41;18.52;;;11.43;;
60502;SDS011;51448;51.660;5.824;2023-08-31T04:38:09;14.38;;;11.02;;
60502;SDS011;51448;51.660;5.824;2023-08-31T04:40:38;14.95;;;11.43;;
60502;SDS011;51448;51.660;5.824;2023-08-31T04:43:06;14.70;;;11.52;;
60502;SDS011;51448;51.660;5.824;2023-08-31T04:45:33;13.32;;;10.52;;
60502;SDS011;51448;51.660;5.824;2023-08-31T04:48:01;13.73;;;10.90;;
60502;SDS011;51448;51.660;5.824;2023-08-31T04:50:28;13.63;;;9.98;;
60502;SDS011;51448;51.660;5.824;2023-08-31T04:52:56;15.07;;;11.48;;
60502;SDS011;51448;51.660;5.824;2023-08-31T04:55:23;16.17;;;10.35;;
60502;SDS011;51448;51.660;5.824;2023-08-31T04:57:52;14.18;;;10.80;;
60502;SDS011;51448;51.660;5.824;2023-08-31T05:00:20;15.15;;;11.55;;
60502;SDS011;51448;51.660;5.824;2023-08-31T05:02:47;18.33;;;12.52;;
60502;SDS011;51448;51.660;5.824;2023-08-31T05:05:15;13.55;;;11.63;;
60502;SDS011;51448;51.660;5.824;2023-08-31T05:07:42;19.02;;;12.05;;
60502;SDS011;51448;51.660;5.824;2023-08-31T05:10:10;15.60;;;11.98;;
60502;SDS011;51448;51.660;5.824;2023-08-31T05:12:38;15.32;;;11.40;;
60502;SDS011;51448;51.660;5.824;2023-08-31T05:15:06;16.75;;;11.95;;
60502;SDS011;51448;51.660;5.824;2023-08-31T05:17:35;20.00;;;12.60;;
60502;SDS011;51448;51.660;5.824;2023-08-31T05:20:02;17.10;;;12.13;;
60502;SDS011;51448;51.660;5.824;2023-08-31T05:22:31;15.98;;;11.40;;
60502;SDS011;51448;51.660;5.824;2023-08-31T05:24:59;13.63;;;10.68;;
60502;SDS011;51448;51.660;5.824;2023-08-31T05:27:27;16.75;;;11.45;;
60502;SDS011;51448;51.660;5.824;2023-08-31T05:29:55;15.00;;;11.52;;
60502;SDS011;51448;51.660;5.824;2023-08-31T05:32:23;16.48;;;11.57;;
60502;SDS011;51448;51.660;5.824;2023-08-31T05:34:50;15.15;;;12.05;;
60502;SDS011;51448;51.660;5.824;2023-08-31T05:37:18;18.98;;;11.77;;
60502;SDS011;51448;51.660;5.824;2023-08-31T05:39:48;24.60;;;11.25;;
60502;SDS011;51448;51.660;5.824;2023-08-31T05:42:17;17.30;;;10.45;;
60502;SDS011;51448;51.660;5.824;2023-08-31T05:44:45;16.35;;;11.07;;
60502;SDS011;51448;51.660;5.824;2023-08-31T05:47:12;13.60;;;10.45;;
60502;SDS011;51448;51.660;5.824;2023-08-31T05:49:40;14.27;;;9.88;;
60502;SDS011;51448;51.660;5.824;2023-08-31T05:52:07;14.68;;;9.73;;
60502;SDS011;51448;51.660;5.824;2023-08-31T05:54:35;13.30;;;10.35;;
60502;SDS011;51448;51.660;5.824;2023-08-31T05:57:03;12.23;;;9.27;;
60502;SDS011;51448;51.660;5.824;2023-08-31T05:59:32;11.75;;;9.65;;
60502;SDS011;51448;51.660;5.824;2023-08-31T06:02:02;12.13;;;10.00;;
60502;SDS011;51448;51.660;5.824;2023-08-31T06:04:31;11.25;;;8.63;;
60502;SDS011;51448;51.660;5.824;2023-08-31T06:06:59;13.07;;;8.88;;
60502;SDS011;51448;51.660;5.824;2023-08-31T06:09:27;11.57;;;8.85;;
60502;SDS011;51448;51.660;5.824;2023-08-31T06:11:54;12.07;;;8.52;;
60502;SDS011;51448;51.660;5.824;2023-08-31T06:14:22;13.57;;;8.85;;
60502;SDS011;51448;51.660;5.824;2023-08-31T06:16:49;11.60;;;8.10;;
60502;SDS011;51448;51.660;5.824;2023-08-31T06:19:17;11.57;;;8.23;;
60502;SDS011;51448;51.660;5.824;2023-08-31T06:21:44;12.27;;;8.25;;
60502;SDS011;51448;51.660;5.824;2023-08-31T06:24:12;11.70;;;8.07;;
60502;SDS011;51448;51.660;5.824;2023-08-31T06:26:40;13.05;;;8.13;;
60502;SDS011;51448;51.660;5.824;2023-08-31T06:29:08;11.93;;;7.85;;
60502;SDS011;51448;51.660;5.824;2023-08-31T06:31:37;12.05;;;7.63;;
60502;SDS011;51448;51.660;5.824;2023-08-31T06:34:05;13.73;;;8.05;;
60502;SDS011;51448;51.660;5.824;2023-08-31T06:36:35;9.32;;;6.75;;
60502;SDS011;51448;51.660;5.824;2023-08-31T06:39:02;10.25;;;6.88;;
60502;SDS011;51448;51.660;5.824;2023-08-31T06:41:31;9.38;;;6.63;;
60502;SDS011;51448;51.660;5.824;2023-08-31T06:43:59;8.50;;;6.55;;
60502;SDS011;51448;51.660;5.824;2023-08-31T06:46:27;10.63;;;6.63;;
60502;SDS011;51448;51.660;5.824;2023-08-31T06:48:55;10.52;;;6.40;;
60502;SDS011;51448;51.660;5.824;2023-08-31T06:51:23;11.05;;;6.43;;
60502;SDS011;51448;51.660;5.824;2023-08-31T06:53:51;9.25;;;5.88;;
60502;SDS011;51448;51.660;5.824;2023-08-31T06:56:19;9.00;;;5.93;;
60502;SDS011;51448;51.660;5.824;2023-08-31T06:58:47;9.30;;;5.90;;
60502;SDS011;51448;51.660;5.824;2023-08-31T07:01:14;9.07;;;5.70;;
60502;SDS011;51448;51.660;5.824;2023-08-31T07:03:42;9.18;;;5.95;;
60502;SDS011;51448;51.660;5.824;2023-08-31T07:06:09;10.18;;;5.80;;
60502;SDS011;51448;51.660;5.824;2023-08-31T07:08:38;9.82;;;6.15;;
60502;SDS011;51448;51.660;5.824;2023-08-31T07:11:07;11.60;;;6.88;;
60502;SDS011;51448;51.660;5.824;2023-08-31T07:13:35;10.27;;;5.70;;
60502;SDS011;51448;51.660;5.824;2023-08-31T07:16:03;9.50;;;6.00;;
60502;SDS011;51448;51.660;5.824;2023-08-31T07:18:31;9.68;;;5.72;;
60502;SDS011;51448;51.660;5.824;2023-08-31T07:20:59;9.30;;;5.65;;
60502;SDS011;51448;51.660;5.824;2023-08-31T07:23:27;10.02;;;4.70;;
60502;SDS011;51448;51.660;5.824;2023-08-31T07:25:57;9.35;;;5.35;;
60502;SDS011;51448;51.660;5.824;2023-08-31T07:28:27;10.90;;;5.38;;
60502;SDS011;51448;51.660;5.824;2023-08-31T07:31:04;9.40;;;5.50;;
60502;SDS011;51448;51.660;5.824;2023-08-31T07:33:33;9.70;;;6.00;;
60502;SDS011;51448;51.660;5.824;2023-08-31T07:36:03;8.02;;;5.10;;
60502;SDS011;51448;51.660;5.824;2023-08-31T07:38:33;7.80;;;4.70;;
60502;SDS011;51448;51.660;5.824;2023-08-31T07:41:01;9.00;;;4.05;;
60502;SDS011;51448;51.660;5.824;2023-08-31T07:43:28;8.63;;;4.72;;
60502;SDS011;51448;51.660;5.824;2023-08-31T07:45:57;8.23;;;5.03;;
60502;SDS011;51448;51.660;5.824;2023-08-31T07:48:24;10.43;;;5.22;;
60502;SDS011;51448;51.660;5.824;2023-08-31T07:50:52;8.35;;;5.30;;
60502;SDS011;51448;51.660;5.824;2023-08-31T07:53:19;7.63;;;4.47;;
60502;SDS011;51448;51.660;5.824;2023-08-31T07:55:50;9.70;;;4.68;;
60502;SDS011;51448;51.660;5.824;2023-08-31T07:58:21;7.05;;;4.35;;
60502;SDS011;51448;51.660;5.824;2023-08-31T08:00:53;7.28;;;4.28;;
60502;SDS011;51448;51.660;5.824;2023-08-31T08:03:23;7.53;;;4.22;;
60502;SDS011;51448;51.660;5.824;2023-08-31T08:05:51;10.05;;;4.38;;
60502;SDS011;51448;51.660;5.824;2023-08-31T08:08:19;8.27;;;4.20;;
60502;SDS011;51448;51.660;5.824;2023-08-31T08:10:47;6.93;;;4.10;;
60502;SDS011;51448;51.660;5.824;2023-08-31T08:13:20;8.85;;;4.30;;
60502;SDS011;51448;51.660;5.824;2023-08-31T08:15:47;7.30;;;3.90;;
60502;SDS011;51448;51.660;5.824;2023-08-31T08:18:16;6.50;;;4.05;;
60502;SDS011;51448;51.660;5.824;2023-08-31T08:20:46;7.30;;;3.50;;
60502;SDS011;51448;51.660;5.824;2023-08-31T08:23:16;6.90;;;3.85;;
60502;SDS011;51448;51.660;5.824;2023-08-31T08:25:43;10.75;;;4.30;;
60502;SDS011;51448;51.660;5.824;2023-08-31T08:28:11;9.65;;;4.47;;
60502;SDS011;51448;51.660;5.824;2023-08-31T08:30:38;6.55;;;3.83;;
60502;SDS011;51448;51.660;5.824;2023-08-31T08:33:07;9.00;;;4.25;;
60502;SDS011;51448;51.660;5.824;2023-08-31T08:35:37;7.30;;;3.83;;
60502;SDS011;51448;51.660;5.824;2023-08-31T08:38:05;8.75;;;3.90;;
60502;SDS011;51448;51.660;5.824;2023-08-31T08:40:33;10.25;;;4.03;;
60502;SDS011;51448;51.660;5.824;2023-08-31T08:43:02;7.80;;;3.55;;
60502;SDS011;51448;51.660;5.824;2023-08-31T08:45:37;6.47;;;3.60;;
60502;SDS011;51448;51.660;5.824;2023-08-31T08:48:08;6.80;;;3.40;;
60502;SDS011;51448;51.660;5.824;2023-08-31T08:50:37;6.78;;;3.50;;
60502;SDS011;51448;51.660;5.824;2023-08-31T08:53:05;6.28;;;3.10;;
60502;SDS011;51448;51.660;5.824;2023-08-31T08:55:33;8.63;;;3.45;;
60502;SDS011;51448;51.660;5.824;2023-08-31T08:58:01;9.20;;;3.42;;
60502;SDS011;51448;51.660;5.824;2023-08-31T09:00:30;6.57;;;3.25;;
60502;SDS011;51448;51.660;5.824;2023-08-31T09:03:00;7.00;;;3.05;;
60502;SDS011;51448;51.660;5.824;2023-08-31T09:05:34;7.88;;;3.40;;
60502;SDS011;51448;51.660;5.824;2023-08-31T09:10:39;6.95;;;3.20;;
60502;SDS011;51448;51.660;5.824;2023-08-31T09:13:14;6.95;;;3.63;;
60502;SDS011;51448;51.660;5.824;2023-08-31T09:15:44;5.97;;;3.20;;
60502;SDS011;51448;51.660;5.824;2023-08-31T09:18:13;7.00;;;2.70;;
60502;SDS011;51448;51.660;5.824;2023-08-31T09:20:43;7.72;;;3.28;;
60502;SDS011;51448;51.660;5.824;2023-08-31T09:23:15;8.30;;;2.40;;
60502;SDS011;51448;51.660;5.824;2023-08-31T09:25:47;7.57;;;2.60;;
60502;SDS011;51448;51.660;5.824;2023-08-31T09:28:20;7.60;;;3.08;;
60502;SDS011;51448;51.660;5.824;2023-08-31T09:31:06;5.38;;;2.90;;
60502;SDS011;51448;51.660;5.824;2023-08-31T09:33:36;5.82;;;2.65;;
60502;SDS011;51448;51.660;5.824;2023-08-31T09:36:06;3.92;;;1.92;;
60502;SDS011;51448;51.660;5.824;2023-08-31T09:38:41;5.88;;;2.08;;
60502;SDS011;51448;51.660;5.824;2023-08-31T09:41:11;5.43;;;2.50;;
60502;SDS011;51448;51.660;5.824;2023-08-31T09:43:39;7.03;;;2.45;;
60502;SDS011;51448;51.660;5.824;2023-08-31T09:46:06;5.65;;;1.73;;
60502;SDS011;51448;51.660;5.824;2023-08-31T09:48:37;4.63;;;1.80;;
60502;SDS011;51448;51.660;5.824;2023-08-31T09:51:07;5.43;;;1.77;;
60502;SDS011;51448;51.660;5.824;2023-08-31T09:53:37;4.03;;;1.52;;
60502;SDS011;51448;51.660;5.824;2023-08-31T09:56:05;4.75;;;1.70;;
60502;SDS011;51448;51.660;5.824;2023-08-31T09:58:34;3.80;;;1.70;;
60502;SDS011;51448;51.660;5.824;2023-08-31T10:01:02;6.53;;;1.90;;
60502;SDS011;51448;51.660;5.824;2023-08-31T10:03:39;5.90;;;2.08;;
60502;SDS011;51448;51.660;5.824;2023-08-31T10:06:07;4.75;;;1.90;;
60502;SDS011;51448;51.660;5.824;2023-08-31T10:08:38;3.90;;;1.80;;
60502;SDS011;51448;51.660;5.824;2023-08-31T10:11:06;6.43;;;2.10;;
60502;SDS011;51448;51.660;5.824;2023-08-31T10:13:37;5.37;;;1.80;;
60502;SDS011;51448;51.660;5.824;2023-08-31T10:16:08;5.65;;;1.80;;
60502;SDS011;51448;51.660;5.824;2023-08-31T10:18:38;3.80;;;1.40;;
60502;SDS011;51448;51.660;5.824;2023-08-31T10:21:06;4.63;;;1.52;;
60502;SDS011;51448;51.660;5.824;2023-08-31T10:23:34;4.75;;;1.55;;
60502;SDS011;51448;51.660;5.824;2023-08-31T10:26:05;5.60;;;2.10;;
60502;SDS011;51448;51.660;5.824;2023-08-31T10:28:38;5.00;;;2.00;;
60502;SDS011;51448;51.660;5.824;2023-08-31T10:31:09;6.78;;;2.38;;
60502;SDS011;51448;51.660;5.824;2023-08-31T10:33:54;6.72;;;2.42;;
60502;SDS011;51448;51.660;5.824;2023-08-31T10:36:35;5.65;;;2.13;;
60502;SDS011;51448;51.660;5.824;2023-08-31T10:39:12;6.55;;;2.20;;
60502;SDS011;51448;51.660;5.824;2023-08-31T10:41:54;4.78;;;1.83;;
60502;SDS011;51448;51.660;5.824;2023-08-31T10:44:24;4.20;;;1.80;;
60502;SDS011;51448;51.660;5.824;2023-08-31T10:46:54;5.53;;;2.53;;
60502;SDS011;51448;51.660;5.824;2023-08-31T10:49:22;6.85;;;2.80;;
60502;SDS011;51448;51.660;5.824;2023-08-31T10:51:56;6.10;;;2.63;;
60502;SDS011;51448;51.660;5.824;2023-08-31T10:54:54;8.82;;;2.60;;
60502;SDS011;51448;51.660;5.824;2023-08-31T10:57:29;4.82;;;1.80;;
60502;SDS011;51448;51.660;5.824;2023-08-31T11:00:00;5.35;;;1.83;;
60502;SDS011;51448;51.660;5.824;2023-08-31T11:02:30;5.65;;;1.98;;
60502;SDS011;51448;51.660;5.824;2023-08-31T11:05:01;4.93;;;1.98;;
60502;SDS011;51448;51.660;5.824;2023-08-31T11:07:44;5.07;;;1.88;;
60502;SDS011;51448;51.660;5.824;2023-08-31T11:10:18;5.80;;;1.80;;
60502;SDS011;51448;51.660;5.824;2023-08-31T11:12:48;4.38;;;1.73;;
60502;SDS011;51448;51.660;5.824;2023-08-31T11:17:50;4.32;;;1.40;;
60502;SDS011;51448;51.660;5.824;2023-08-31T11:20:19;5.15;;;1.65;;
60502;SDS011;51448;51.660;5.824;2023-08-31T11:22:56;4.75;;;1.60;;
60502;SDS011;51448;51.660;5.824;2023-08-31T11:25:24;7.53;;;2.00;;
60502;SDS011;51448;51.660;5.824;2023-08-31T11:27:56;5.57;;;1.98;;
60502;SDS011;51448;51.660;5.824;2023-08-31T11:30:27;6.55;;;2.00;;
60502;SDS011;51448;51.660;5.824;2023-08-31T11:33:02;5.15;;;1.77;;
60502;SDS011;51448;51.660;5.824;2023-08-31T11:35:33;5.30;;;1.85;;
60502;SDS011;51448;51.660;5.824;2023-08-31T11:38:04;6.15;;;2.22;;
60502;SDS011;51448;51.660;5.824;2023-08-31T11:40:33;6.18;;;1.60;;
60502;SDS011;51448;51.660;5.824;2023-08-31T11:43:01;4.60;;;2.03;;
60502;SDS011;51448;51.660;5.824;2023-08-31T11:45:31;5.13;;;2.38;;
60502;SDS011;51448;51.660;5.824;2023-08-31T11:48:00;4.50;;;1.60;;
60502;SDS011;51448;51.660;5.824;2023-08-31T11:50:28;5.63;;;2.20;;
60502;SDS011;51448;51.660;5.824;2023-08-31T11:52:56;4.60;;;2.20;;
60502;SDS011;51448;51.660;5.824;2023-08-31T11:55:24;6.20;;;2.35;;
60502;SDS011;51448;51.660;5.824;2023-08-31T11:57:52;5.90;;;2.35;;
60502;SDS011;51448;51.660;5.824;2023-08-31T12:00:24;5.63;;;2.40;;
60502;SDS011;51448;51.660;5.824;2023-08-31T12:05:27;5.95;;;2.17;;
60502;SDS011;51448;51.660;5.824;2023-08-31T12:07:55;5.55;;;2.75;;
60502;SDS011;51448;51.660;5.824;2023-08-31T12:10:24;6.07;;;2.42;;
60502;SDS011;51448;51.660;5.824;2023-08-31T12:12:53;4.75;;;2.47;;
60502;SDS011;51448;51.660;5.824;2023-08-31T12:15:23;6.68;;;3.00;;
60502;SDS011;51448;51.660;5.824;2023-08-31T12:17:59;6.80;;;2.38;;
60502;SDS011;51448;51.660;5.824;2023-08-31T12:20:42;9.77;;;2.58;;
60502;SDS011;51448;51.660;5.824;2023-08-31T12:23:13;7.38;;;2.42;;
60502;SDS011;51448;51.660;5.824;2023-08-31T12:25:46;5.50;;;2.25;;
60502;SDS011;51448;51.660;5.824;2023-08-31T12:28:18;6.55;;;2.65;;
60502;SDS011;51448;51.660;5.824;2023-08-31T12:30:49;4.35;;;1.92;;
60502;SDS011;51448;51.660;5.824;2023-08-31T12:33:21;6.15;;;2.55;;
60502;SDS011;51448;51.660;5.824;2023-08-31T12:35:49;6.38;;;2.75;;
60502;SDS011;51448;51.660;5.824;2023-08-31T12:38:17;5.93;;;2.42;;
60502;SDS011;51448;51.660;5.824;2023-08-31T12:40:46;6.95;;;2.78;;
60502;SDS011;51448;51.660;5.824;2023-08-31T12:43:13;8.02;;;3.10;;
60502;SDS011;51448;51.660;5.824;2023-08-31T12:45:44;6.57;;;2.38;;
60502;SDS011;51448;51.660;5.824;2023-08-31T12:48:12;7.30;;;2.50;;
60502;SDS011;51448;51.660;5.824;2023-08-31T12:50:40;6.32;;;2.72;;
60502;SDS011;51448;51.660;5.824;2023-08-31T12:53:08;6.80;;;3.55;;
60502;SDS011;51448;51.660;5.824;2023-08-31T12:55:35;6.57;;;3.70;;
60502;SDS011;51448;51.660;5.824;2023-08-31T12:58:03;7.20;;;3.85;;
60502;SDS011;51448;51.660;5.824;2023-08-31T13:00:31;6.65;;;3.55;;
60502;SDS011;51448;51.660;5.824;2023-08-31T13:02:58;6.57;;;4.32;;
60502;SDS011;51448;51.660;5.824;2023-08-31T13:05:28;7.85;;;4.05;;
60502;SDS011;51448;51.660;5.824;2023-08-31T13:07:56;10.52;;;4.40;;
60502;SDS011;51448;51.660;5.824;2023-08-31T13:10:23;8.93;;;4.65;;
60502;SDS011;51448;51.660;5.824;2023-08-31T13:12:51;6.10;;;3.90;;
60502;SDS011;51448;51.660;5.824;2023-08-31T13:15:18;6.63;;;4.47;;
60502;SDS011;51448;51.660;5.824;2023-08-31T13:17:46;6.35;;;4.32;;
60502;SDS011;51448;51.660;5.824;2023-08-31T13:20:13;8.60;;;4.85;;
60502;SDS011;51448;51.660;5.824;2023-08-31T13:22:41;9.02;;;4.15;;
60502;SDS011;51448;51.660;5.824;2023-08-31T13:25:09;7.25;;;4.43;;
60502;SDS011;51448;51.660;5.824;2023-08-31T13:27:38;8.07;;;4.43;;
60502;SDS011;51448;51.660;5.824;2023-08-31T13:30:06;7.13;;;4.55;;
60502;SDS011;51448;51.660;5.824;2023-08-31T13:32:36;9.00;;;5.50;;
60502;SDS011;51448;51.660;5.824;2023-08-31T13:35:04;7.60;;;4.78;;
60502;SDS011;51448;51.660;5.824;2023-08-31T13:40:02;6.45;;;4.82;;
60502;SDS011;51448;51.660;5.824;2023-08-31T13:42:35;7.60;;;4.97;;
60502;SDS011;51448;51.660;5.824;2023-08-31T13:45:06;7.82;;;4.82;;
60502;SDS011;51448;51.660;5.824;2023-08-31T13:47:35;7.47;;;4.70;;
60502;SDS011;51448;51.660;5.824;2023-08-31T13:50:03;7.47;;;4.50;;
60502;SDS011;51448;51.660;5.824;2023-08-31T13:52:31;8.10;;;4.10;;
60502;SDS011;51448;51.660;5.824;2023-08-31T13:54:59;5.70;;;3.60;;
60502;SDS011;51448;51.660;5.824;2023-08-31T13:57:26;8.38;;;4.10;;
60502;SDS011;51448;51.660;5.824;2023-08-31T13:59:54;6.90;;;4.35;;
60502;SDS011;51448;51.660;5.824;2023-08-31T14:02:21;7.28;;;3.88;;
60502;SDS011;51448;51.660;5.824;2023-08-31T14:04:49;6.80;;;3.95;;
60502;SDS011;51448;51.660;5.824;2023-08-31T14:07:17;7.18;;;4.00;;
60502;SDS011;51448;51.660;5.824;2023-08-31T14:09:44;9.20;;;4.20;;
60502;SDS011;51448;51.660;5.824;2023-08-31T14:12:12;7.22;;;3.85;;
60502;SDS011;51448;51.660;5.824;2023-08-31T14:14:39;7.80;;;4.05;;
60502;SDS011;51448;51.660;5.824;2023-08-31T14:17:08;7.97;;;4.43;;
60502;SDS011;51448;51.660;5.824;2023-08-31T14:19:37;6.75;;;4.10;;
60502;SDS011;51448;51.660;5.824;2023-08-31T14:22:04;6.97;;;3.88;;
60502;SDS011;51448;51.660;5.824;2023-08-31T14:24:32;8.45;;;4.45;;
60502;SDS011;51448;51.660;5.824;2023-08-31T14:27:00;6.03;;;4.03;;
60502;SDS011;51448;51.660;5.824;2023-08-31T14:29:27;7.95;;;4.63;;
60502;SDS011;51448;51.660;5.824;2023-08-31T14:31:55;6.95;;;3.78;;
60502;SDS011;51448;51.660;5.824;2023-08-31T14:34:23;7.10;;;3.95;;
60502;SDS011;51448;51.660;5.824;2023-08-31T14:36:59;6.35;;;3.78;;
60502;SDS011;51448;51.660;5.824;2023-08-31T14:39:28;7.32;;;3.83;;
60502;SDS011;51448;51.660;5.824;2023-08-31T14:41:59;5.70;;;3.58;;
60502;SDS011;51448;51.660;5.824;2023-08-31T14:44:26;5.63;;;3.55;;
60502;SDS011;51448;51.660;5.824;2023-08-31T14:46:55;6.18;;;3.22;;
60502;SDS011;51448;51.660;5.824;2023-08-31T14:49:23;5.28;;;3.08;;
60502;SDS011;51448;51.660;5.824;2023-08-31T14:51:52;5.18;;;2.50;;
60502;SDS011;51448;51.660;5.824;2023-08-31T14:54:19;5.43;;;2.40;;
60502;SDS011;51448;51.660;5.824;2023-08-31T14:56:53;4.78;;;2.15;;
60502;SDS011;51448;51.660;5.824;2023-08-31T14:59:21;5.32;;;2.20;;
60502;SDS011;51448;51.660;5.824;2023-08-31T15:01:48;4.40;;;2.10;;
60502;SDS011;51448;51.660;5.824;2023-08-31T15:04:16;4.93;;;2.38;;
60502;SDS011;51448;51.660;5.824;2023-08-31T15:06:44;7.35;;;2.78;;
60502;SDS011;51448;51.660;5.824;2023-08-31T15:09:11;4.80;;;2.50;;
60502;SDS011;51448;51.660;5.824;2023-08-31T15:11:39;5.40;;;2.67;;
60502;SDS011;51448;51.660;5.824;2023-08-31T15:14:07;5.72;;;3.10;;
60502;SDS011;51448;51.660;5.824;2023-08-31T15:16:35;7.10;;;2.78;;